Time;durP1;ratioP1;P1;durP2;ratioP2;P2;SDS_P1;SDS_P2;PMS_P1;PMS_P2;Temp;Humidity;BMP_temperature;BMP_pressure;BME280_temperature;BME280_humidity;BME280_pressure;Samples;Min_cycle;Max_cycle;Signal;HPM_P1;HPM_P2
2024/01/12 00:00:20;;;;;;;1.17;0.73;;;;;;;;;;1039440;28;20041;-23
2024/01/12 00:00:50;;;;;;;0.55;0.55;;;;;;;;;;1039853;28;20032;-23
2024/01/12 00:01:21;;;;;;;1.38;1.27;;;;;;;;;;1039601;28;20029;-22
2024/01/12 00:01:52;;;;;;;0.28;0.28;;;;;;;;;;1039362;28;20025;-21
2024/01/12 00:02:22;;;;;;;0.60;0.60;;;;;;;;;;1039773;28;20474;-21
2024/01/12 00:02:52;;;;;;;0.63;0.57;;;;;;;;;;1039739;28;20029;-23
2024/01/12 00:03:23;;;;;;;5.15;1.75;;;;;;;;;;1039742;28;20397;-21
2024/01/12 00:03:53;;;;;;;0.30;0.30;;;;;;;;;;1039672;28;20108;-23
2024/01/12 00:04:24;;;;;;;0.85;0.77;;;;;;;;;;1039813;28;20116;-21
2024/01/12 00:04:54;;;;;;;1.77;0.95;;;;;;;;;;1039521;28;20059;-22
2024/01/12 00:05:25;;;;;;;10.63;2.40;;;;;;;;;;1039613;28;20064;-23
2024/01/12 00:05:55;;;;;;;0.60;0.60;;;;;;;;;;1039006;28;20370;-21
2024/01/12 00:06:26;;;;;;;2.92;2.15;;;;;;;;;;1039675;28;20040;-21
2024/01/12 00:06:56;;;;;;;10.55;2.63;;;;;;;;;;1039808;28;20045;-22
2024/01/12 00:07:27;;;;;;;0.68;0.68;;;;;;;;;;1039570;28;20029;-23
2024/01/12 00:07:57;;;;;;;5.15;1.98;;;;;;;;;;1039665;28;20508;-21
2024/01/12 00:08:28;;;;;;;24.25;2.78;;;;;;;;;;1039923;28;20159;-22
2024/01/12 00:08:59;;;;;;;0.60;0.60;;;;;;;;;;1039488;28;20484;-22
2024/01/12 00:09:29;;;;;;;0.45;0.45;;;;;;;;;;1039778;28;20030;-21
2024/01/12 00:10:00;;;;;;;5.72;3.35;;;;;;;;;;1039715;28;20473;-23
2024/01/12 00:10:30;;;;;;;2.72;1.85;;;;;;;;;;1039691;28;20017;-22
2024/01/12 00:11:00;;;;;;;0.65;0.65;;;;;;;;;;1039738;28;20026;-22
2024/01/12 00:11:31;;;;;;;3.47;2.42;;;;;;;;;;1039735;28;20044;-23
2024/01/12 00:12:02;;;;;;;0.50;0.50;;;;;;;;;;1039636;28;20033;-22
2024/01/12 00:12:32;;;;;;;0.30;0.30;;;;;;;;;;1039789;28;20027;-22
2024/01/12 00:13:02;;;;;;;2.40;2.20;;;;;;;;;;1040464;28;20032;-22
2024/01/12 00:13:33;;;;;;;1.00;0.98;;;;;;;;;;1039270;28;20029;-22
2024/01/12 00:14:03;;;;;;;2.85;0.98;;;;;;;;;;1039170;28;20075;-21
2024/01/12 00:14:34;;;;;;;2.72;0.65;;;;;;;;;;1039335;28;20022;-22
2024/01/12 00:15:05;;;;;;;0.82;0.70;;;;;;;;;;1039447;28;20028;-22
2024/01/12 00:15:36;;;;;;;0.90;0.90;;;;;;;;;;1039283;28;20029;-22
2024/01/12 00:16:07;;;;;;;1.70;1.58;;;;;;;;;;1039191;28;20053;-21
2024/01/12 00:16:37;;;;;;;4.60;2.15;;;;;;;;;;1039637;28;20039;-23
2024/01/12 00:17:07;;;;;;;0.65;0.65;;;;;;;;;;1039631;28;20033;-22
2024/01/12 00:17:38;;;;;;;2.30;1.77;;;;;;;;;;1039416;28;20116;-22
2024/01/12 00:18:08;;;;;;;5.55;1.02;;;;;;;;;;1039769;28;20116;-21
2024/01/12 00:18:39;;;;;;;4.65;2.35;;;;;;;;;;1039731;28;20021;-22
2024/01/12 00:19:10;;;;;;;3.00;2.47;;;;;;;;;;1039686;28;20071;-21
2024/01/12 00:19:40;;;;;;;2.08;1.95;;;;;;;;;;1039666;28;20087;-21
2024/01/12 00:20:11;;;;;;;3.83;2.90;;;;;;;;;;1039626;28;20052;-21
2024/01/12 00:20:43;;;;;;;0.43;0.43;;;;;;;;;;1039337;28;20112;-21
2024/01/12 00:21:14;;;;;;;0.65;0.45;;;;;;;;;;1039681;28;20025;-21
2024/01/12 00:21:44;;;;;;;1.23;1.13;;;;;;;;;;1039664;28;20531;-20
2024/01/12 00:22:15;;;;;;;2.90;1.67;;;;;;;;;;1039739;28;20029;-22
2024/01/12 00:22:45;;;;;;;5.07;1.38;;;;;;;;;;1039528;28;20136;-22
2024/01/12 00:23:15;;;;;;;0.77;0.45;;;;;;;;;;1039472;28;20036;-22
2024/01/12 00:23:46;;;;;;;0.63;0.63;;;;;;;;;;1039249;28;20040;-22
2024/01/12 00:24:17;;;;;;;1.65;1.45;;;;;;;;;;1039265;28;20488;-22
2024/01/12 00:24:48;;;;;;;3.17;2.10;;;;;;;;;;1039794;28;20429;-20
2024/01/12 00:25:19;;;;;;;0.68;0.68;;;;;;;;;;1039294;28;20477;-22
2024/01/12 00:25:49;;;;;;;0.15;0.15;;;;;;;;;;1039525;28;20068;-22
2024/01/12 00:26:20;;;;;;;0.30;0.30;;;;;;;;;;1039578;28;20021;-21
2024/01/12 00:26:50;;;;;;;0.30;0.30;;;;;;;;;;1039557;28;20029;-20
2024/01/12 00:27:21;;;;;;;1.85;1.75;;;;;;;;;;1039628;28;20457;-20
2024/01/12 00:27:51;;;;;;;0.30;0.30;;;;;;;;;;1039569;28;20463;-23
2024/01/12 00:28:22;;;;;;;0.38;0.38;;;;;;;;;;1039747;28;20116;-22
2024/01/12 00:28:52;;;;;;;0.70;0.70;;;;;;;;;;1039716;28;20045;-21
2024/01/12 00:29:22;;;;;;;6.65;0.95;;;;;;;;;;1039544;28;20045;-21
2024/01/12 00:29:53;;;;;;;0.38;0.38;;;;;;;;;;1039464;28;20112;-22
2024/01/12 00:30:23;;;;;;;0.38;0.38;;;;;;;;;;1039619;28;20037;-23
2024/01/12 00:30:54;;;;;;;1.80;1.70;;;;;;;;;;1039514;28;20060;-23
2024/01/12 00:31:25;;;;;;;0.57;0.57;;;;;;;;;;1038575;28;20022;-23
2024/01/12 00:31:55;;;;;;;1.27;1.20;;;;;;;;;;1039652;28;20444;-22
2024/01/12 00:32:26;;;;;;;2.28;2.10;;;;;;;;;;1038659;28;20554;-21
2024/01/12 00:32:56;;;;;;;0.80;0.80;;;;;;;;;;1039571;28;20223;-22
2024/01/12 00:33:26;;;;;;;0.30;0.30;;;;;;;;;;1039283;28;20033;-21
2024/01/12 00:33:57;;;;;;;0.40;0.40;;;;;;;;;;1039148;28;20075;-21
2024/01/12 00:34:28;;;;;;;0.63;0.63;;;;;;;;;;1039320;28;20038;-21
2024/01/12 00:34:58;;;;;;;0.65;0.65;;;;;;;;;;1039709;28;20051;-22
2024/01/12 00:35:28;;;;;;;6.68;2.10;;;;;;;;;;1039597;28;20035;-23
2024/01/12 00:35:59;;;;;;;1.15;1.08;;;;;;;;;;1039085;28;20037;-21
2024/01/12 00:36:29;;;;;;;0.63;0.52;;;;;;;;;;1039633;28;20120;-22
2024/01/12 00:37:00;;;;;;;1.30;1.20;;;;;;;;;;1039726;28;20033;-23
2024/01/12 00:37:30;;;;;;;0.20;0.20;;;;;;;;;;1039785;28;20490;-21
2024/01/12 00:38:01;;;;;;;0.75;0.75;;;;;;;;;;1039175;28;20057;-21
2024/01/12 00:38:31;;;;;;;0.20;0.20;;;;;;;;;;1039676;28;20112;-22
2024/01/12 00:39:03;;;;;;;1.40;1.30;;;;;;;;;;1039626;28;20017;-22
2024/01/12 00:39:35;;;;;;;0.30;0.30;;;;;;;;;;1039055;28;20025;-19
2024/01/12 00:40:06;;;;;;;6.30;2.75;;;;;;;;;;1039607;28;20025;-22
2024/01/12 00:40:36;;;;;;;0.20;0.20;;;;;;;;;;1039507;28;20028;-23
2024/01/12 00:41:07;;;;;;;3.33;1.65;;;;;;;;;;1039715;28;20022;-23
2024/01/12 00:41:37;;;;;;;0.35;0.35;;;;;;;;;;1039483;28;20036;-21
2024/01/12 00:42:08;;;;;;;0.43;0.43;;;;;;;;;;1039536;28;20029;-22
2024/01/12 00:42:38;;;;;;;0.90;0.90;;;;;;;;;;1039623;28;20033;-22
2024/01/12 00:43:09;;;;;;;1.00;1.00;;;;;;;;;;1039670;28;20107;-21
2024/01/12 00:43:39;;;;;;;1.45;0.50;;;;;;;;;;1039615;28;20086;-22
2024/01/12 00:44:09;;;;;;;0.43;0.43;;;;;;;;;;1038355;28;20022;-23
2024/01/12 00:44:40;;;;;;;1.27;0.98;;;;;;;;;;1038399;28;20469;-21
2024/01/12 00:45:10;;;;;;;0.50;0.50;;;;;;;;;;1037377;28;20025;-20
2024/01/12 00:45:41;;;;;;;1.38;1.30;;;;;;;;;;1039632;28;20025;-22
2024/01/12 00:46:11;;;;;;;0.65;0.65;;;;;;;;;;1039464;28;20025;-22
2024/01/12 00:46:44;;;;;;;0.55;0.55;;;;;;;;;;1039626;28;20029;-20
2024/01/12 00:47:14;;;;;;;0.40;0.40;;;;;;;;;;1039565;28;20432;-22
2024/01/12 00:47:44;;;;;;;0.80;0.80;;;;;;;;;;1039495;28;20033;-22
2024/01/12 00:48:15;;;;;;;0.20;0.20;;;;;;;;;;1039325;28;20147;-20
2024/01/12 00:48:45;;;;;;;0.10;0.10;;;;;;;;;;1039371;28;20464;-22
2024/01/12 00:49:19;;;;;;;2.42;1.55;;;;;;;;;;1039571;28;20030;-23
2024/01/12 00:49:50;;;;;;;1.10;0.63;;;;;;;;;;1038705;28;20114;-23
2024/01/12 00:50:20;;;;;;;3.42;3.20;;;;;;;;;;1039591;28;20090;-22
2024/01/12 00:50:51;;;;;;;0.30;0.30;;;;;;;;;;1038844;28;20029;-21
2024/01/12 00:51:21;;;;;;;0.30;0.30;;;;;;;;;;1039407;28;20017;-22
2024/01/12 00:51:51;;;;;;;0.22;0.22;;;;;;;;;;1039276;28;20033;-22
2024/01/12 00:52:22;;;;;;;0.30;0.30;;;;;;;;;;1039606;28;20075;-21
2024/01/12 00:52:52;;;;;;;0.20;0.20;;;;;;;;;;1039347;28;20112;-22
2024/01/12 00:53:23;;;;;;;0.20;0.20;;;;;;;;;;1039150;28;20029;-21
2024/01/12 00:53:53;;;;;;;0.52;0.52;;;;;;;;;;1039475;28;20025;-22
2024/01/12 00:54:26;;;;;;;0.65;0.65;;;;;;;;;;1039453;28;20477;-22
2024/01/12 00:54:59;;;;;;;0.63;0.63;;;;;;;;;;1038747;28;20139;-22
2024/01/12 00:55:29;;;;;;;0.80;0.80;;;;;;;;;;1039426;28;20064;-21
2024/01/12 00:56:00;;;;;;;2.25;2.05;;;;;;;;;;1039411;28;20475;-23
2024/01/12 00:56:30;;;;;;;0.40;0.40;;;;;;;;;;1039265;28;20041;-21
2024/01/12 00:57:01;;;;;;;0.30;0.30;;;;;;;;;;1039475;28;20028;-20
2024/01/12 00:57:31;;;;;;;0.35;0.35;;;;;;;;;;1039577;28;20021;-22
2024/01/12 00:58:02;;;;;;;0.25;0.25;;;;;;;;;;1039516;28;20116;-22
2024/01/12 00:58:33;;;;;;;1.20;1.17;;;;;;;;;;1039461;28;20052;-19
2024/01/12 00:59:05;;;;;;;0.20;0.20;;;;;;;;;;1039299;28;20025;-22
2024/01/12 00:59:35;;;;;;;0.22;0.22;;;;;;;;;;1039238;28;20397;-23
2024/01/12 01:00:06;;;;;;;0.20;0.20;;;;;;;;;;1039374;28;20325;-22
2024/01/12 01:00:36;;;;;;;1.67;1.55;;;;;;;;;;1039042;28;20468;-22
2024/01/12 01:01:08;;;;;;;0.30;0.30;;;;;;;;;;1039627;28;20021;-22
2024/01/12 01:01:38;;;;;;;0.43;0.43;;;;;;;;;;1039319;28;20469;-22
2024/01/12 01:02:08;;;;;;;0.20;0.20;;;;;;;;;;1039297;28;20055;-22
2024/01/12 01:02:40;;;;;;;0.50;0.50;;;;;;;;;;1039381;28;20053;-21
2024/01/12 01:03:10;;;;;;;0.30;0.30;;;;;;;;;;1038662;28;20024;-21
2024/01/12 01:03:41;;;;;;;0.30;0.30;;;;;;;;;;1039538;28;20047;-22
2024/01/12 01:04:11;;;;;;;0.52;0.52;;;;;;;;;;1039331;28;20062;-23
2024/01/12 01:04:42;;;;;;;0.10;0.10;;;;;;;;;;1039195;28;20025;-22
2024/01/12 01:05:12;;;;;;;0.60;0.60;;;;;;;;;;1038961;28;20013;-21
2024/01/12 01:05:42;;;;;;;1.45;1.35;;;;;;;;;;1038551;28;20029;-23
2024/01/12 01:06:13;;;;;;;0.30;0.30;;;;;;;;;;1039016;28;20025;-21
2024/01/12 01:06:44;;;;;;;0.82;0.80;;;;;;;;;;1039473;28;20119;-21
2024/01/12 01:07:14;;;;;;;5.40;2.13;;;;;;;;;;1039692;28;20021;-22
2024/01/12 01:07:45;;;;;;;0.22;0.22;;;;;;;;;;1039226;28;20029;-21
2024/01/12 01:08:15;;;;;;;4.22;2.38;;;;;;;;;;1039372;28;20370;-23
2024/01/12 01:08:48;;;;;;;0.47;0.47;;;;;;;;;;1038514;28;20073;-21
2024/01/12 01:09:18;;;;;;;0.60;0.60;;;;;;;;;;1038796;28;20021;-22
2024/01/12 01:09:49;;;;;;;1.48;1.38;;;;;;;;;;1038860;28;20083;-21
2024/01/12 01:10:19;;;;;;;1.90;1.80;;;;;;;;;;1039036;28;20021;-21
2024/01/12 01:10:49;;;;;;;0.30;0.30;;;;;;;;;;1039119;28;20116;-21
2024/01/12 01:11:20;;;;;;;0.73;0.73;;;;;;;;;;1039387;28;20052;-21
2024/01/12 01:11:54;;;;;;;0.35;0.35;;;;;;;;;;1039368;28;20407;-19
2024/01/12 01:12:25;;;;;;;0.40;0.40;;;;;;;;;;1038561;28;20025;-22
2024/01/12 01:12:55;;;;;;;0.73;0.68;;;;;;;;;;1038429;28;20021;-23
2024/01/12 01:13:26;;;;;;;0.32;0.32;;;;;;;;;;1039348;28;20038;-22
2024/01/12 01:13:56;;;;;;;0.25;0.25;;;;;;;;;;1039253;28;20496;-23
2024/01/12 01:14:27;;;;;;;0.40;0.40;;;;;;;;;;1039097;28;20512;-22
2024/01/12 01:14:58;;;;;;;1.98;1.77;;;;;;;;;;1038758;28;20102;-23
2024/01/12 01:15:29;;;;;;;0.75;0.75;;;;;;;;;;1038796;28;20118;-19
2024/01/12 01:16:00;;;;;;;0.20;0.20;;;;;;;;;;1038996;28;20113;-21
2024/01/12 01:16:30;;;;;;;0.35;0.35;;;;;;;;;;1038820;28;20060;-21
2024/01/12 01:17:00;;;;;;;1.00;1.00;;;;;;;;;;1038715;28;20021;-21
2024/01/12 01:17:31;;;;;;;2.55;1.95;;;;;;;;;;1038995;28;20022;-20
2024/01/12 01:18:01;;;;;;;0.17;0.17;;;;;;;;;;1039302;28;20075;-20
2024/01/12 01:18:32;;;;;;;0.85;0.85;;;;;;;;;;1039222;28;20040;-20
2024/01/12 01:19:02;;;;;;;0.38;0.38;;;;;;;;;;1039412;28;20167;-22
2024/01/12 01:19:35;;;;;;;0.40;0.40;;;;;;;;;;1039285;28;20025;-22
2024/01/12 01:20:07;;;;;;;0.43;0.43;;;;;;;;;;1039180;28;20017;-21
2024/01/12 01:20:38;;;;;;;0.32;0.32;;;;;;;;;;1038713;28;20021;-21
2024/01/12 01:21:09;;;;;;;0.43;0.43;;;;;;;;;;1039206;28;20032;-22
2024/01/12 01:21:39;;;;;;;0.60;0.60;;;;;;;;;;1039382;28;20025;-21
2024/01/12 01:22:10;;;;;;;0.10;0.10;;;;;;;;;;1039189;28;20595;-21
2024/01/12 01:22:40;;;;;;;0.25;0.25;;;;;;;;;;1039335;28;20018;-21
2024/01/12 01:23:11;;;;;;;0.43;0.43;;;;;;;;;;1039383;28;20029;-22
2024/01/12 01:23:41;;;;;;;2.10;1.98;;;;;;;;;;1039426;28;20030;-21
2024/01/12 01:24:11;;;;;;;2.80;1.65;;;;;;;;;;1039198;28;20029;-20
2024/01/12 01:24:42;;;;;;;0.30;0.30;;;;;;;;;;1039432;28;20396;-21
2024/01/12 01:25:12;;;;;;;0.52;0.52;;;;;;;;;;1039708;28;20416;-20
2024/01/12 01:25:43;;;;;;;0.40;0.40;;;;;;;;;;1039189;28;20102;-20
2024/01/12 01:26:13;;;;;;;0.70;0.55;;;;;;;;;;1039155;28;20049;-22
2024/01/12 01:26:44;;;;;;;0.28;0.28;;;;;;;;;;1039310;28;20022;-22
2024/01/12 01:27:14;;;;;;;1.48;1.38;;;;;;;;;;1039174;28;20021;-21
2024/01/12 01:27:45;;;;;;;0.20;0.20;;;;;;;;;;1039239;28;20037;-21
2024/01/12 01:28:15;;;;;;;0.20;0.20;;;;;;;;;;1039094;28;20147;-20
2024/01/12 01:28:46;;;;;;;0.75;0.75;;;;;;;;;;1037277;28;20469;-20
2024/01/12 01:29:24;;;;;;;0.30;0.30;;;;;;;;;;1037158;28;20061;-20
2024/01/12 01:29:54;;;;;;;0.60;0.60;;;;;;;;;;1039089;28;20029;-20
2024/01/12 01:30:25;;;;;;;1.08;1.05;;;;;;;;;;1039228;28;20111;-20
2024/01/12 01:30:55;;;;;;;0.43;0.43;;;;;;;;;;1037297;28;20034;-22
2024/01/12 01:31:26;;;;;;;1.15;1.05;;;;;;;;;;1038108;28;20052;-21
2024/01/12 01:31:56;;;;;;;0.10;0.10;;;;;;;;;;1037926;28;20033;-19
2024/01/12 01:32:27;;;;;;;0.20;0.20;;;;;;;;;;1038948;28;20062;-22
2024/01/12 01:32:57;;;;;;;0.52;0.52;;;;;;;;;;1038547;28;20088;-21
2024/01/12 01:33:28;;;;;;;0.90;0.90;;;;;;;;;;1038742;28;20040;-21
2024/01/12 01:33:58;;;;;;;0.93;0.93;;;;;;;;;;1038478;28;20025;-20
2024/01/12 01:34:29;;;;;;;4.00;0.93;;;;;;;;;;1039207;28;20024;-22
2024/01/12 01:34:59;;;;;;;1.00;1.00;;;;;;;;;;1038544;28;20171;-23
2024/01/12 01:35:30;;;;;;;0.65;0.65;;;;;;;;;;1038992;28;20033;-22
2024/01/12 01:36:00;;;;;;;1.27;1.17;;;;;;;;;;1038864;28;20026;-20
2024/01/12 01:36:30;;;;;;;1.27;1.17;;;;;;;;;;1038735;28;20480;-20
2024/01/12 01:37:03;;;;;;;5.57;1.65;;;;;;;;;;1038995;28;20473;-22
2024/01/12 01:37:33;;;;;;;0.25;0.25;;;;;;;;;;1038156;28;20032;-20
2024/01/12 01:38:04;;;;;;;3.13;0.40;;;;;;;;;;1038634;28;20064;-21
2024/01/12 01:38:34;;;;;;;0.20;0.20;;;;;;;;;;1039237;28;20025;-23
2024/01/12 01:39:04;;;;;;;0.90;0.90;;;;;;;;;;1038142;28;20437;-20
2024/01/12 01:39:35;;;;;;;0.20;0.20;;;;;;;;;;1039298;28;20396;-21
2024/01/12 01:40:07;;;;;;;0.10;0.10;;;;;;;;;;1038950;28;20480;-21
2024/01/12 01:40:38;;;;;;;0.28;0.28;;;;;;;;;;1038669;28;20117;-21
2024/01/12 01:41:09;;;;;;;0.30;0.30;;;;;;;;;;1038714;28;20032;-20
2024/01/12 01:41:39;;;;;;;2.40;2.30;;;;;;;;;;1038522;28;20022;-19
2024/01/12 01:42:09;;;;;;;1.80;1.02;;;;;;;;;;1039164;28;20078;-19
2024/01/12 01:42:40;;;;;;;2.50;0.98;;;;;;;;;;1039191;28;20013;-21
2024/01/12 01:43:11;;;;;;;7.68;1.75;;;;;;;;;;1039487;28;20025;-19
2024/01/12 01:43:41;;;;;;;3.70;0.65;;;;;;;;;;1038162;28;20026;-20
2024/01/12 01:44:12;;;;;;;0.77;0.75;;;;;;;;;;1039107;28;20029;-20
2024/01/12 01:44:42;;;;;;;2.22;0.88;;;;;;;;;;1039200;28;20083;-21
2024/01/12 01:45:14;;;;;;;0.95;0.95;;;;;;;;;;1039629;28;20021;-20
2024/01/12 01:45:44;;;;;;;1.10;1.10;;;;;;;;;;1036862;28;20036;-23
2024/01/12 01:46:15;;;;;;;0.85;0.73;;;;;;;;;;1036803;28;20033;-19
2024/01/12 01:46:45;;;;;;;1.20;1.20;;;;;;;;;;1038539;28;20025;-22
2024/01/12 01:47:17;;;;;;;0.82;0.82;;;;;;;;;;1038344;28;20024;-21
2024/01/12 01:47:48;;;;;;;0.20;0.20;;;;;;;;;;1038950;28;20044;-22
2024/01/12 01:48:19;;;;;;;0.20;0.20;;;;;;;;;;1038254;28;20041;-19
2024/01/12 01:48:49;;;;;;;1.00;1.00;;;;;;;;;;1037468;28;20085;-20
2024/01/12 01:49:20;;;;;;;0.65;0.65;;;;;;;;;;1037574;28;20041;-21
2024/01/12 01:49:50;;;;;;;0.45;0.45;;;;;;;;;;1037282;28;20057;-19
2024/01/12 01:50:21;;;;;;;0.10;0.10;;;;;;;;;;1039209;28;20036;-20
2024/01/12 01:50:52;;;;;;;1.02;0.80;;;;;;;;;;1038211;28;20025;-22
2024/01/12 01:51:22;;;;;;;5.65;1.20;;;;;;;;;;1038960;28;20059;-21
2024/01/12 01:51:53;;;;;;;0.40;0.40;;;;;;;;;;1039233;28;20076;-20
2024/01/12 01:52:25;;;;;;;0.68;0.68;;;;;;;;;;1038239;28;20021;-21
2024/01/12 01:52:56;;;;;;;0.30;0.30;;;;;;;;;;1036766;28;20033;-20
2024/01/12 01:53:26;;;;;;;0.40;0.40;;;;;;;;;;1037411;28;20021;-21
2024/01/12 01:53:57;;;;;;;0.55;0.30;;;;;;;;;;1037626;28;20060;-19
2024/01/12 01:54:27;;;;;;;0.45;0.45;;;;;;;;;;1038183;28;20577;-21
2024/01/12 01:54:58;;;;;;;2.05;1.85;;;;;;;;;;1038541;28;20485;-20
2024/01/12 01:55:29;;;;;;;1.85;0.73;;;;;;;;;;1038408;28;20025;-21
2024/01/12 01:56:02;;;;;;;0.50;0.50;;;;;;;;;;1037703;28;20030;-24
2024/01/12 01:56:32;;;;;;;5.45;1.95;;;;;;;;;;1036842;28;20065;-22
2024/01/12 01:57:03;;;;;;;1.27;1.20;;;;;;;;;;1038062;28;20029;-23
2024/01/12 01:57:34;;;;;;;0.45;0.45;;;;;;;;;;1037089;28;20030;-21
2024/01/12 01:58:04;;;;;;;0.20;0.20;;;;;;;;;;1037947;28;20025;-22
2024/01/12 01:58:35;;;;;;;0.10;0.10;;;;;;;;;;1038013;28;20029;-21
2024/01/12 01:59:06;;;;;;;9.65;1.30;;;;;;;;;;1037469;28;20116;-20
2024/01/12 01:59:37;;;;;;;2.75;2.50;;;;;;;;;;1037362;28;20480;-22
2024/01/12 02:00:09;;;;;;;0.85;0.85;;;;;;;;;;1036732;28;20030;-22
2024/01/12 02:00:41;;;;;;;0.20;0.20;;;;;;;;;;1036734;28;20025;-22
2024/01/12 02:01:14;;;;;;;0.30;0.30;;;;;;;;;;1032175;28;20495;-22
2024/01/12 02:01:44;;;;;;;3.00;1.25;;;;;;;;;;1032404;28;20574;-19
2024/01/12 02:02:15;;;;;;;0.55;0.55;;;;;;;;;;1032235;28;20034;-23
2024/01/12 02:02:45;;;;;;;0.50;0.50;;;;;;;;;;1037408;28;20088;-23
2024/01/12 02:03:16;;;;;;;0.52;0.52;;;;;;;;;;1036859;28;20033;-22
2024/01/12 02:03:47;;;;;;;2.40;1.85;;;;;;;;;;1037012;28;20026;-19
2024/01/12 02:04:18;;;;;;;0.77;0.77;;;;;;;;;;1037384;28;20118;-23
2024/01/12 02:04:51;;;;;;;1.15;1.13;;;;;;;;;;1036104;28;20199;-20
2024/01/12 02:05:22;;;;;;;0.20;0.20;;;;;;;;;;1038323;28;20021;-22
2024/01/12 02:05:54;;;;;;;0.25;0.25;;;;;;;;;;1037492;28;20400;-20
2024/01/12 02:06:25;;;;;;;2.92;2.72;;;;;;;;;;1037536;28;20067;-23
2024/01/12 02:06:56;;;;;;;2.08;1.85;;;;;;;;;;1038392;28;20025;-23
2024/01/12 02:07:28;;;;;;;16.35;2.17;;;;;;;;;;1038684;28;20116;-23
2024/01/12 02:08:01;;;;;;;0.65;0.65;;;;;;;;;;1032024;28;20032;-19
2024/01/12 02:08:32;;;;;;;1.10;1.00;;;;;;;;;;1033491;28;20420;-21
2024/01/12 02:09:04;;;;;;;0.32;0.32;;;;;;;;;;1034444;28;20262;-22
2024/01/12 02:09:35;;;;;;;1.13;1.10;;;;;;;;;;1033868;28;20033;-21
2024/01/12 02:10:06;;;;;;;0.73;0.73;;;;;;;;;;1037383;28;20029;-21
2024/01/12 02:10:37;;;;;;;0.88;0.88;;;;;;;;;;1037704;28;20022;-23
2024/01/12 02:11:08;;;;;;;0.38;0.38;;;;;;;;;;1037870;28;20025;-22
2024/01/12 02:11:38;;;;;;;1.15;1.08;;;;;;;;;;1037700;28;20030;-21
2024/01/12 02:12:09;;;;;;;1.10;1.10;;;;;;;;;;1037213;28;20459;-22
2024/01/12 02:12:39;;;;;;;11.00;2.30;;;;;;;;;;1037122;28;20469;-21
2024/01/12 02:13:10;;;;;;;1.17;1.10;;;;;;;;;;1037101;28;20061;-20
2024/01/12 02:13:40;;;;;;;0.20;0.20;;;;;;;;;;1034817;28;20022;-22
2024/01/12 02:14:11;;;;;;;0.93;0.93;;;;;;;;;;1036428;28;20469;-21
2024/01/12 02:14:42;;;;;;;1.40;1.30;;;;;;;;;;1036485;28;20022;-21
2024/01/12 02:15:12;;;;;;;5.78;2.78;;;;;;;;;;1037377;28;20022;-23
2024/01/12 02:15:43;;;;;;;0.20;0.20;;;;;;;;;;1031155;28;20064;-23
2024/01/12 02:16:13;;;;;;;2.00;0.95;;;;;;;;;;1033016;28;20610;-22
2024/01/12 02:16:44;;;;;;;1.63;1.42;;;;;;;;;;1033432;28;20026;-24
2024/01/12 02:17:14;;;;;;;2.92;1.27;;;;;;;;;;1038260;28;20033;-22
2024/01/12 02:17:45;;;;;;;0.50;0.50;;;;;;;;;;1038115;28;20067;-23
2024/01/12 02:18:16;;;;;;;0.20;0.20;;;;;;;;;;1037602;28;20039;-21
2024/01/12 02:18:46;;;;;;;0.28;0.28;;;;;;;;;;1039054;28;20116;-23
2024/01/12 02:19:17;;;;;;;8.93;4.30;;;;;;;;;;1037620;28;20017;-21
2024/01/12 02:19:47;;;;;;;0.55;0.55;;;;;;;;;;1038082;28;20036;-22
2024/01/12 02:20:18;;;;;;;0.85;0.85;;;;;;;;;;1037652;28;20440;-22
2024/01/12 02:20:52;;;;;;;1.55;1.45;;;;;;;;;;1036539;28;21680;-21
2024/01/12 02:21:23;;;;;;;6.75;1.08;;;;;;;;;;1033228;28;20092;-21
2024/01/12 02:21:56;;;;;;;0.95;0.95;;;;;;;;;;1034403;28;20057;-22
2024/01/12 02:22:26;;;;;;;0.50;0.50;;;;;;;;;;1037650;28;20039;-21
2024/01/12 02:22:57;;;;;;;0.95;0.95;;;;;;;;;;1037225;28;20029;-21
2024/01/12 02:23:27;;;;;;;0.88;0.88;;;;;;;;;;1037292;28;20033;-20
2024/01/12 02:23:58;;;;;;;15.98;1.65;;;;;;;;;;1036615;28;20036;-23
2024/01/12 02:24:28;;;;;;;1.65;1.27;;;;;;;;;;1035901;28;20041;-23
2024/01/12 02:24:59;;;;;;;0.88;0.85;;;;;;;;;;1036674;28;20025;-23
2024/01/12 02:25:30;;;;;;;1.42;1.33;;;;;;;;;;1035926;28;20084;-22
2024/01/12 02:26:00;;;;;;;0.40;0.40;;;;;;;;;;1036575;28;20116;-23
2024/01/12 02:26:31;;;;;;;1.40;1.30;;;;;;;;;;1037760;28;20061;-23
2024/01/12 02:27:01;;;;;;;1.75;1.10;;;;;;;;;;1038568;28;20060;-21
2024/01/12 02:27:32;;;;;;;1.48;1.45;;;;;;;;;;1036892;28;20107;-22
2024/01/12 02:28:03;;;;;;;2.65;2.50;;;;;;;;;;1037803;28;20033;-23
2024/01/12 02:28:34;;;;;;;0.43;0.43;;;;;;;;;;1035835;28;20544;-22
2024/01/12 02:29:05;;;;;;;10.02;3.22;;;;;;;;;;1038185;28;20033;-23
2024/01/12 02:29:36;;;;;;;11.60;2.40;;;;;;;;;;1037081;28;20080;-23
2024/01/12 02:30:08;;;;;;;2.10;1.65;;;;;;;;;;1038603;28;20028;-21
2024/01/12 02:30:39;;;;;;;0.82;0.82;;;;;;;;;;1037914;28;20029;-22
2024/01/12 02:31:09;;;;;;;1.90;1.38;;;;;;;;;;1037775;28;20022;-23
2024/01/12 02:31:40;;;;;;;2.28;2.13;;;;;;;;;;1037650;28;20029;-22
2024/01/12 02:32:11;;;;;;;34.13;3.80;;;;;;;;;;1037674;28;20052;-24
2024/01/12 02:32:42;;;;;;;1.50;1.50;;;;;;;;;;1039104;28;20025;-23
2024/01/12 02:33:12;;;;;;;5.25;3.63;;;;;;;;;;1038619;28;20037;-23
2024/01/12 02:33:43;;;;;;;5.00;1.20;;;;;;;;;;1037827;28;20029;-22
2024/01/12 02:34:14;;;;;;;1.42;1.33;;;;;;;;;;1038499;28;20022;-23
2024/01/12 02:34:44;;;;;;;8.05;3.15;;;;;;;;;;1039444;28;20030;-22
2024/01/12 02:35:15;;;;;;;1.10;1.10;;;;;;;;;;1037311;28;20382;-23
2024/01/12 02:35:45;;;;;;;0.75;0.75;;;;;;;;;;1035776;28;20596;-21
2024/01/12 02:36:16;;;;;;;4.72;2.53;;;;;;;;;;1036676;28;20033;-23
2024/01/12 02:36:46;;;;;;;7.25;2.13;;;;;;;;;;1038602;28;20037;-20
2024/01/12 02:37:17;;;;;;;1.52;0.90;;;;;;;;;;1037020;28;20021;-21
2024/01/12 02:37:47;;;;;;;0.30;0.30;;;;;;;;;;1037528;28;20103;-22
2024/01/12 02:38:17;;;;;;;5.07;1.92;;;;;;;;;;1036978;28;20037;-23
2024/01/12 02:38:49;;;;;;;3.65;1.20;;;;;;;;;;1038059;28;20026;-23
2024/01/12 02:39:19;;;;;;;0.75;0.75;;;;;;;;;;1038466;28;20033;-22
2024/01/12 02:39:50;;;;;;;1.08;0.85;;;;;;;;;;1038659;28;20061;-22
2024/01/12 02:40:20;;;;;;;1.33;1.30;;;;;;;;;;1039281;28;20036;-22
2024/01/12 02:40:51;;;;;;;2.05;1.92;;;;;;;;;;1039258;28;20049;-22
2024/01/12 02:41:21;;;;;;;0.28;0.28;;;;;;;;;;1038115;28;20393;-22
2024/01/12 02:41:57;;;;;;;1.65;1.08;;;;;;;;;;1038947;28;20022;-21
2024/01/12 02:42:27;;;;;;;0.73;0.73;;;;;;;;;;1037152;28;20029;-22
2024/01/12 02:42:59;;;;;;;2.42;1.73;;;;;;;;;;1038914;28;20445;-23
2024/01/12 02:43:30;;;;;;;1.17;1.17;;;;;;;;;;1034439;28;20017;-22
2024/01/12 02:44:01;;;;;;;1.65;1.45;;;;;;;;;;1037228;28;20025;-20
2024/01/12 02:44:31;;;;;;;2.63;1.35;;;;;;;;;;1038713;28;20659;-22
2024/01/12 02:45:02;;;;;;;1.80;1.65;;;;;;;;;;1038929;28;20136;-23
2024/01/12 02:45:33;;;;;;;1.10;1.10;;;;;;;;;;1037991;28;20021;-22
2024/01/12 02:46:04;;;;;;;2.40;2.22;;;;;;;;;;1037630;28;20033;-24
2024/01/12 02:46:34;;;;;;;2.63;1.00;;;;;;;;;;1038429;28;20017;-22
2024/01/12 02:47:06;;;;;;;0.85;0.85;;;;;;;;;;1037154;28;20111;-20
2024/01/12 02:47:37;;;;;;;0.77;0.77;;;;;;;;;;1036863;28;20021;-21
2024/01/12 02:48:08;;;;;;;3.95;3.03;;;;;;;;;;1036196;28;20393;-22
2024/01/12 02:48:39;;;;;;;2.35;2.15;;;;;;;;;;1032442;28;20037;-23
2024/01/12 02:49:12;;;;;;;0.63;0.63;;;;;;;;;;1033111;28;20531;-22
2024/01/12 02:49:59;;;;;;;2.38;1.25;;;;;;;;;;1029681;28;20646;-23
2024/01/12 02:50:38;;;;;;;0.43;0.43;;;;;;;;;;1028127;28;20117;-23
2024/01/12 02:51:09;;;;;;;1.25;1.15;;;;;;;;;;1031462;28;20097;-24
2024/01/12 02:51:40;;;;;;;2.67;2.47;;;;;;;;;;1035034;28;20061;-22
2024/01/12 02:52:11;;;;;;;1.50;1.40;;;;;;;;;;1036565;28;20116;-21
2024/01/12 02:52:41;;;;;;;5.53;4.40;;;;;;;;;;1037414;28;20025;-22
2024/01/12 02:53:12;;;;;;;2.08;1.42;;;;;;;;;;1036517;28;20036;-22
2024/01/12 02:53:42;;;;;;;3.88;2.25;;;;;;;;;;1036361;28;20523;-23
2024/01/12 02:54:13;;;;;;;0.60;0.60;;;;;;;;;;1036348;28;20032;-22
2024/01/12 02:54:43;;;;;;;4.07;2.03;;;;;;;;;;1037067;28;20025;-23
2024/01/12 02:55:14;;;;;;;0.77;0.55;;;;;;;;;;1035583;28;20079;-22
2024/01/12 02:55:45;;;;;;;0.82;0.82;;;;;;;;;;1035910;28;20127;-22
2024/01/12 02:56:15;;;;;;;1.52;1.42;;;;;;;;;;1032915;28;20033;-22
2024/01/12 02:56:46;;;;;;;0.80;0.75;;;;;;;;;;1034363;28;20041;-22
2024/01/12 02:57:17;;;;;;;0.30;0.30;;;;;;;;;;1035508;28;20171;-22
2024/01/12 02:57:47;;;;;;;6.63;3.05;;;;;;;;;;1035656;28;20040;-22
2024/01/12 02:58:19;;;;;;;0.40;0.40;;;;;;;;;;1036857;28;20021;-22
2024/01/12 02:58:53;;;;;;;1.27;1.20;;;;;;;;;;1036282;28;20438;-22
2024/01/12 02:59:26;;;;;;;1.10;1.10;;;;;;;;;;1037881;28;20406;-22
2024/01/12 02:59:58;;;;;;;0.68;0.68;;;;;;;;;;1032813;28;20018;-23
2024/01/12 03:00:30;;;;;;;2.17;1.95;;;;;;;;;;1030957;28;20037;-22
2024/01/12 03:01:02;;;;;;;0.90;0.90;;;;;;;;;;1032343;28;20025;-22
2024/01/12 03:01:34;;;;;;;12.30;1.42;;;;;;;;;;1037240;28;20120;-22
2024/01/12 03:02:04;;;;;;;1.60;1.38;;;;;;;;;;1039262;28;20037;-21
2024/01/12 03:02:36;;;;;;;0.25;0.25;;;;;;;;;;1039031;28;20020;-21
2024/01/12 03:03:26;;;;;;;6.13;1.17;;;;;;;;;;1038038;28;20383;-24
2024/01/12 03:04:17;;;;;;;4.35;4.03;;;;;;;;;;1033949;28;20034;-23
2024/01/12 03:04:51;;;;;;;0.85;0.75;;;;;;;;;;1032962;28;20353;-22
2024/01/12 03:05:22;;;;;;;1.35;1.15;;;;;;;;;;1023184;28;20209;-21
2024/01/12 03:05:53;;;;;;;3.72;3.42;;;;;;;;;;1030048;28;20576;-22